Stowe, Vermont
Current Conditions -  °F | °C
As of 6:51 AM on Sunday 23 Nov 2014 (Local Time) from KMPV Reporting Station
Overcast Overcast  
Wind Chill:   Ceiling: 2300
Heat Index:   Visibility: 10mi
Dew Point:   Wind: 3mph
Humidity: 86%   Direction: 50°NE
Pressure: 30.03"   Gusts: NA
Location:  44.47°N, 72.68°W
Report Text: KMPV 231151Z AUTO 05003KT 10SM FEW017 OVC023 05/03 A3003 RMK AO2 SLP181 60001 70001 T00500028 10061 20039 51014
Loading
Personal Weather Stations






























Interactive Weather Map New forecast layout! Learn more

10-Day Weather Forecast

Advertisements
Track Severe Weather on mobile